createdAt,value
2019-01-02T00:00:37.378Z,77.96
2019-01-02T00:03:06.339Z,79.32
2019-01-02T00:05:35.502Z,79.30
2019-01-02T00:08:04.885Z,79.74
2019-01-02T00:10:33.944Z,79.38
2019-01-02T00:13:02.788Z,78.20
2019-01-02T00:15:31.843Z,77.47
2019-01-02T00:18:00.534Z,75.50
2019-01-02T00:20:29.292Z,77.59
2019-01-02T00:22:58.877Z,76.12
2019-01-02T00:25:27.908Z,78.75
2019-01-02T00:27:57.055Z,76.44
2019-01-02T00:30:25.819Z,76.30
2019-01-02T00:32:54.779Z,77.62
2019-01-02T00:35:23.468Z,76.35
2019-01-02T00:37:52.609Z,77.39
2019-01-02T00:40:21.375Z,77.78
2019-01-02T00:42:50.719Z,77.76
2019-01-02T00:45:22.377Z,78.02
2019-01-02T00:47:49.891Z,76.75
2019-01-02T00:50:18.586Z,76.81
2019-01-02T00:52:47.279Z,75.52
2019-01-02T00:55:15.967Z,76.13
2019-01-02T00:57:44.667Z,75.37
2019-01-02T01:00:20.225Z,74.79
2019-01-02T01:02:49.552Z,74.80
2019-01-02T01:05:18.425Z,75.25
2019-01-02T01:07:47.751Z,74.19
2019-01-02T01:10:17.863Z,74.58
2019-01-02T01:12:47.021Z,74.04
2019-01-02T01:15:16.131Z,73.28
2019-01-02T01:17:45.204Z,73.25
2019-01-02T01:20:16.235Z,73.34
2019-01-02T01:22:46.575Z,73.27
2019-01-02T01:25:15.584Z,72.76
2019-01-02T01:27:44.342Z,74.33
2019-01-02T01:30:13.314Z,73.85
2019-01-02T01:32:42.082Z,74.13
2019-01-02T01:35:13.150Z,72.77
2019-01-02T01:37:46.284Z,69.93
2019-01-02T01:40:15.182Z,72.77
2019-01-02T01:42:45.354Z,72.06
2019-01-02T01:45:14.116Z,71.79
2019-01-02T01:47:42.879Z,72.61
2019-01-02T01:50:11.921Z,71.92
2019-01-02T01:52:40.621Z,73.33
2019-01-02T01:55:09.293Z,72.76
2019-01-02T01:57:38.242Z,72.75
2019-01-02T02:00:11.041Z,73.43
2019-01-02T02:02:40.199Z,72.85
2019-01-02T02:05:09.263Z,73.77
2019-01-02T02:07:38.090Z,73.05
2019-01-02T02:10:09.804Z,73.78
2019-01-02T02:12:38.560Z,72.49
2019-01-02T02:15:09.044Z,73.50
2019-01-02T02:17:38.015Z,71.56
2019-01-02T02:20:08.531Z,72.86
2019-01-02T02:22:37.580Z,72.24
2019-01-02T02:25:08.148Z,73.19
2019-01-02T02:27:37.188Z,72.94
2019-01-02T02:30:07.671Z,73.43
2019-01-02T02:32:36.360Z,72.97
2019-01-02T02:35:05.256Z,74.07
2019-01-02T02:37:33.945Z,71.61
2019-01-02T02:40:02.958Z,71.43
2019-01-02T02:42:31.708Z,72.41
2019-01-02T02:45:00.758Z,73.87
2019-01-02T02:47:29.831Z,73.73
2019-01-02T02:49:58.993Z,73.32
2019-01-02T02:52:27.720Z,71.54
2019-01-02T02:54:56.729Z,71.42
2019-01-02T02:57:25.473Z,73.23
2019-01-02T02:59:54.163Z,74.17
2019-01-02T03:02:22.924Z,72.31
2019-01-02T03:04:51.692Z,73.63
2019-01-02T03:07:20.768Z,72.99
2019-01-02T03:09:49.783Z,73.01
2019-01-02T03:12:18.855Z,73.37
2019-01-02T03:14:47.667Z,72.70
2019-01-02T03:17:16.360Z,72.94
2019-01-02T03:19:45.846Z,73.71
2019-01-02T03:22:14.781Z,73.69
2019-01-02T03:24:43.753Z,74.28
2019-01-02T03:27:12.792Z,74.83
2019-01-02T03:29:42.910Z,72.74
2019-01-02T03:32:11.971Z,74.03
2019-01-02T03:34:41.036Z,73.75
2019-01-02T03:37:09.906Z,73.03
2019-01-02T03:39:38.594Z,72.68
2019-01-02T03:42:07.302Z,72.87
2019-01-02T03:44:36.083Z,73.37
2019-01-02T03:47:04.828Z,73.28
2019-01-02T03:49:33.595Z,74.33
2019-01-02T03:52:02.350Z,74.32
2019-01-02T03:54:31.411Z,72.71
2019-01-02T03:57:00.173Z,72.62
2019-01-02T03:59:28.852Z,74.06
2019-01-02T04:01:57.601Z,74.04
2019-01-02T04:04:26.400Z,73.67
2019-01-02T04:06:55.751Z,72.96
2019-01-02T04:09:24.446Z,73.48
2019-01-02T04:11:53.206Z,74.33
2019-01-02T04:14:21.956Z,74.66
2019-01-02T04:16:50.636Z,73.82
2019-01-02T04:19:19.338Z,73.81
2019-01-02T04:21:48.016Z,73.88
2019-01-02T04:24:17.201Z,75.25
2019-01-02T04:26:45.873Z,74.58
2019-01-02T04:29:14.616Z,73.78
2019-01-02T04:31:43.663Z,73.67
2019-01-02T04:34:12.635Z,76.11
2019-01-02T04:36:41.319Z,73.75
2019-01-02T04:39:10.368Z,74.51
2019-01-02T04:41:39.047Z,73.81
2019-01-02T04:44:07.797Z,73.88
2019-01-02T04:46:37.482Z,74.67
2019-01-02T04:49:06.161Z,74.34
2019-01-02T04:51:34.858Z,75.08
2019-01-02T04:54:03.550Z,74.00
2019-01-02T04:56:32.315Z,73.90
2019-01-02T04:59:01.244Z,73.75
2019-01-02T05:01:30.186Z,73.31
2019-01-02T05:03:59.294Z,73.55
2019-01-02T05:06:28.026Z,73.82
2019-01-02T05:08:56.750Z,74.00
2019-01-02T05:11:25.420Z,75.03
2019-01-02T05:13:54.126Z,73.89
2019-01-02T05:16:22.873Z,73.37
2019-01-02T05:18:51.553Z,72.86
2019-01-02T05:21:20.239Z,73.77
2019-01-02T05:23:48.990Z,73.52
2019-01-02T05:26:18.883Z,73.31
2019-01-02T05:28:47.568Z,74.12
2019-01-02T05:31:16.317Z,73.97
2019-01-02T05:33:45.018Z,73.46
2019-01-02T05:36:13.738Z,73.75
2019-01-02T05:38:42.746Z,72.33
2019-01-02T05:41:11.455Z,71.46
2019-01-02T05:43:40.145Z,72.32
2019-01-02T05:46:09.223Z,71.90
2019-01-02T05:48:37.989Z,70.82
2019-01-02T05:51:07.087Z,71.04
2019-01-02T05:53:36.430Z,70.77
2019-01-02T05:56:05.183Z,70.32
2019-01-02T05:58:33.880Z,71.30
2019-01-02T06:01:02.631Z,71.96
2019-01-02T06:03:31.701Z,71.40
2019-01-02T06:06:00.617Z,71.03
2019-01-02T06:08:30.156Z,72.29
2019-01-02T06:10:58.854Z,71.49
2019-01-02T06:13:27.525Z,70.42
2019-01-02T06:15:56.226Z,70.82
2019-01-02T06:18:25.197Z,70.67
2019-01-02T06:20:53.941Z,70.47
2019-01-02T06:23:22.874Z,70.58
2019-01-02T06:25:51.645Z,70.52
2019-01-02T06:28:20.411Z,71.12
2019-01-02T06:30:49.445Z,70.03
2019-01-02T06:33:18.130Z,70.63
2019-01-02T06:35:46.836Z,71.35
2019-01-02T06:38:15.593Z,71.28
2019-01-02T06:40:45.098Z,69.83
2019-01-02T06:43:13.826Z,69.87
2019-01-02T06:45:42.885Z,70.71
2019-01-02T06:48:11.574Z,69.13
2019-01-02T06:50:40.313Z,69.38
2019-01-02T06:53:09.449Z,69.69
2019-01-02T06:55:38.133Z,69.27
2019-01-02T06:58:06.896Z,69.79
2019-01-02T07:00:38.726Z,70.52
2019-01-02T07:03:07.467Z,70.80
2019-01-02T07:05:36.243Z,70.14
2019-01-02T07:08:05.001Z,70.14
2019-01-02T07:10:33.699Z,69.14
2019-01-02T07:13:02.433Z,70.02
2019-01-02T07:15:31.166Z,69.45
2019-01-02T07:17:59.907Z,70.23
2019-01-02T07:20:28.580Z,70.00
2019-01-02T07:22:57.285Z,69.60
2019-01-02T07:25:25.983Z,70.31
2019-01-02T07:27:55.007Z,69.71
2019-01-02T07:30:25.027Z,70.28
2019-01-02T07:32:53.844Z,70.27
2019-01-02T07:35:54.679Z,68.61
2019-01-02T07:39:22.887Z,69.44
2019-01-02T07:42:20.218Z,69.66
2019-01-02T07:45:26.365Z,69.50
2019-01-02T07:48:40.542Z,69.72
2019-01-02T07:51:46.617Z,69.85
2019-01-02T07:55:14.956Z,69.86
2019-01-02T07:58:23.564Z,70.89
2019-01-02T08:01:39.394Z,71.37
2019-01-02T08:05:07.728Z,73.16
2019-01-02T08:08:21.171Z,73.84
2019-01-02T08:11:38.962Z,73.45
2019-01-02T08:14:55.628Z,72.13
2019-01-02T08:18:11.544Z,73.07
2019-01-02T08:21:08.628Z,73.12
2019-01-02T08:24:18.519Z,72.27
2019-01-02T08:27:28.764Z,71.53
2019-01-02T08:30:38.294Z,71.77
2019-01-02T08:33:23.912Z,72.52
2019-01-02T08:36:43.282Z,71.18
2019-01-02T08:39:58.050Z,70.41
2019-01-02T08:42:48.435Z,69.60
2019-01-02T08:46:07.410Z,69.93
2019-01-02T08:49:13.704Z,69.93
2019-01-02T08:52:26.389Z,70.46
2019-01-02T08:55:41.616Z,70.04
2019-01-02T08:58:48.135Z,68.72
2019-01-02T09:02:19.424Z,69.28
2019-01-02T09:05:35.756Z,69.61
2019-01-02T09:09:01.009Z,69.77
2019-01-02T09:12:16.301Z,68.78
2019-01-02T09:15:38.194Z,68.76
2019-01-02T09:18:44.303Z,68.28
2019-01-02T09:21:50.124Z,69.41
2019-01-02T09:24:57.557Z,69.54
2019-01-02T09:27:52.788Z,69.37
2019-01-02T09:30:47.448Z,69.24
2019-01-02T09:33:41.339Z,66.72
2019-01-02T09:37:14.631Z,68.03
2019-01-02T09:40:28.681Z,69.02
2019-01-02T09:43:34.220Z,67.95
2019-01-02T09:46:53.958Z,68.39
2019-01-02T09:50:00.252Z,67.19
2019-01-02T09:53:04.889Z,67.37
2019-01-02T09:56:00.273Z,67.46
2019-01-02T09:59:06.375Z,66.43
2019-01-02T10:01:47.329Z,67.59
2019-01-02T10:04:36.908Z,69.43
2019-01-02T10:07:52.274Z,68.54
2019-01-02T10:11:29.592Z,69.38
2019-01-02T10:14:37.029Z,69.16
2019-01-02T10:17:44.153Z,69.71
2019-01-02T10:20:43.881Z,69.43
2019-01-02T10:23:48.658Z,69.15
2019-01-02T10:26:44.227Z,69.16
2019-01-02T10:29:36.942Z,70.14
2019-01-02T10:32:44.112Z,70.22
2019-01-02T10:35:44.788Z,69.46
2019-01-02T10:38:52.212Z,68.69
2019-01-02T10:41:54.648Z,69.41
2019-01-02T10:45:01.878Z,69.11
2019-01-02T10:48:09.001Z,69.36
2019-01-02T10:51:16.145Z,69.76
2019-01-02T10:54:06.483Z,69.37
2019-01-02T10:56:59.548Z,69.39
2019-01-02T11:00:07.248Z,69.08
2019-01-02T11:03:14.369Z,68.55
2019-01-02T11:06:22.480Z,67.69
2019-01-02T11:09:16.243Z,68.56
2019-01-02T11:12:23.419Z,68.71
2019-01-02T11:15:30.544Z,68.75
2019-01-02T11:18:37.723Z,71.28
2019-01-02T11:21:44.854Z,70.26
2019-01-02T11:28:04.936Z,71.18
2019-01-02T11:31:08.096Z,71.78
2019-01-02T11:34:11.781Z,70.13
2019-01-02T11:37:19.177Z,68.96
2019-01-02T11:40:26.307Z,70.51
2019-01-02T11:43:33.814Z,68.17
2019-01-02T11:46:02.500Z,68.70
2019-01-02T11:48:31.535Z,67.74
2019-01-02T11:51:19.416Z,67.53
2019-01-02T11:54:07.360Z,66.30
2019-01-02T11:56:36.038Z,65.64
2019-01-02T11:59:04.790Z,67.91
2019-01-02T12:01:33.491Z,67.56
2019-01-02T12:04:02.195Z,67.40
2019-01-02T12:09:47.073Z,69.07
2019-01-02T12:12:16.195Z,68.52
2019-01-02T12:14:44.885Z,67.25
2019-01-02T12:17:26.347Z,66.89
2019-01-02T12:25:42.623Z,67.48
2019-01-02T12:28:11.310Z,68.19
2019-01-02T12:30:59.349Z,68.58
2019-01-02T12:33:28.112Z,67.65
2019-01-02T12:35:56.803Z,67.00
2019-01-02T12:38:25.500Z,67.84
2019-01-02T12:40:54.175Z,68.50
2019-01-02T12:43:22.936Z,68.33
2019-01-02T12:45:51.625Z,68.09
2019-01-02T12:48:20.313Z,68.44
2019-01-02T12:53:23.676Z,67.19
2019-01-02T12:56:11.708Z,66.71
2019-01-02T12:58:59.726Z,66.67
2019-01-02T13:02:06.902Z,66.82
2019-01-02T13:04:59.400Z,67.58
2019-01-02T13:08:06.529Z,68.86
2019-01-02T13:11:13.665Z,67.62
2019-01-02T13:17:06.951Z,67.28
2019-01-02T13:20:14.074Z,67.77
2019-01-02T13:23:21.198Z,67.48
2019-01-02T13:54:49.433Z,50.43
2019-01-02T13:57:18.128Z,50.72
2019-01-02T13:59:47.195Z,51.80
2019-01-02T14:02:15.875Z,53.57
2019-01-02T14:04:46.268Z,53.64
2019-01-02T14:07:14.970Z,54.12
2019-01-02T14:09:43.647Z,54.75
2019-01-02T14:12:12.361Z,55.04
2019-01-02T14:14:41.079Z,54.65
2019-01-02T14:17:10.610Z,55.64
2019-01-02T14:19:39.308Z,55.79
2019-01-02T14:22:08.064Z,56.40
2019-01-02T14:24:37.432Z,56.78
2019-01-02T14:27:06.195Z,57.46
2019-01-02T14:29:34.876Z,56.71
2019-01-02T14:32:03.586Z,56.91
2019-01-02T14:34:32.274Z,57.42
2019-01-02T14:37:02.389Z,59.16
2019-01-02T14:39:31.149Z,58.83
2019-01-02T14:42:00.283Z,58.51
2019-01-02T14:44:28.976Z,58.87
2019-01-02T14:46:57.661Z,58.96
2019-01-02T14:49:26.365Z,59.28
2019-01-02T14:51:55.256Z,59.87
2019-01-02T14:54:24.018Z,60.78
2019-01-02T14:56:52.780Z,60.09
2019-01-02T14:59:21.475Z,59.69
2019-01-02T15:01:50.180Z,59.67
2019-01-02T15:04:19.210Z,59.65
2019-01-02T15:06:48.251Z,60.26
2019-01-02T15:09:16.967Z,60.04
2019-01-02T15:11:45.633Z,59.57
2019-01-02T15:14:14.708Z,60.37
2019-01-02T15:16:44.661Z,61.23
2019-01-02T15:19:13.649Z,60.69
2019-01-02T15:21:42.341Z,61.66
2019-01-02T15:24:11.311Z,61.72
2019-01-02T15:26:40.390Z,62.28
2019-01-02T15:29:09.114Z,62.47
2019-01-02T15:31:37.963Z,62.99
2019-01-02T15:34:06.652Z,61.66
2019-01-02T15:36:35.337Z,62.92
2019-01-02T15:39:06.578Z,62.82
2019-01-02T15:41:35.272Z,62.22
2019-01-02T15:44:03.960Z,63.37
2019-01-02T15:46:32.663Z,63.52
2019-01-02T15:49:01.352Z,63.21
2019-01-02T15:51:30.054Z,64.23
2019-01-02T15:53:58.740Z,64.24
2019-01-02T15:56:27.553Z,64.36
2019-01-02T15:58:56.246Z,64.65
2019-01-02T16:01:24.976Z,64.92
2019-01-02T16:03:54.033Z,65.54
2019-01-02T16:06:22.798Z,64.62
2019-01-02T16:08:51.473Z,65.26
2019-01-02T16:11:20.524Z,65.49
2019-01-02T16:13:49.213Z,65.40
2019-01-02T16:16:18.297Z,65.71
2019-01-02T16:18:46.982Z,66.18
2019-01-02T16:21:15.673Z,66.20
2019-01-02T16:23:44.381Z,66.53
2019-01-02T16:26:13.138Z,67.62
2019-01-02T16:28:41.831Z,67.63
2019-01-02T16:31:11.058Z,67.79
2019-01-02T16:33:39.775Z,68.78
2019-01-02T16:36:08.463Z,70.23
2019-01-02T16:38:37.524Z,69.80
2019-01-02T16:41:06.222Z,69.42
2019-01-02T16:43:35.647Z,69.66
2019-01-02T16:46:04.407Z,70.14
2019-01-02T16:48:33.162Z,70.87
2019-01-02T16:51:01.843Z,72.79
2019-01-02T16:53:30.539Z,73.59
2019-01-02T16:55:59.312Z,73.12
2019-01-02T16:58:27.997Z,72.89
2019-01-02T17:00:56.753Z,71.31
2019-01-02T17:03:25.447Z,73.14
2019-01-02T17:05:54.144Z,73.48
2019-01-02T17:08:23.220Z,74.16
2019-01-02T17:10:51.988Z,75.24
2019-01-02T17:13:20.691Z,75.04
2019-01-02T17:15:49.426Z,76.06
2019-01-02T17:18:18.182Z,76.66
2019-01-02T17:20:47.316Z,76.67
2019-01-02T17:23:16.014Z,78.17
2019-01-02T17:25:45.006Z,79.41
2019-01-02T17:28:13.758Z,78.94
2019-01-02T17:30:42.451Z,78.48
2019-01-02T17:33:11.145Z,78.57
2019-01-02T17:35:39.886Z,78.79
2019-01-02T17:38:08.587Z,78.52
2019-01-02T17:40:37.275Z,78.25
2019-01-02T17:43:05.966Z,79.27
2019-01-02T17:45:34.661Z,79.54
2019-01-02T17:48:03.707Z,80.27
2019-01-02T17:50:32.675Z,80.45
2019-01-02T17:53:01.366Z,80.26
2019-01-02T17:55:30.050Z,80.67
2019-01-02T17:57:58.792Z,81.73
2019-01-02T18:00:27.558Z,81.05
2019-01-02T18:02:56.267Z,82.22
2019-01-02T18:05:24.963Z,83.22
2019-01-02T18:07:54.072Z,82.08
2019-01-02T18:10:22.840Z,83.34
2019-01-02T18:12:51.599Z,84.11
2019-01-02T18:15:20.647Z,83.47
2019-01-02T18:17:49.412Z,83.68
2019-01-02T18:20:18.430Z,83.60
2019-01-02T18:22:47.258Z,84.84
2019-01-02T18:25:16.225Z,85.13
2019-01-02T18:27:45.239Z,85.63
2019-01-02T18:30:14.096Z,86.28
2019-01-02T18:32:42.789Z,85.93
2019-01-02T18:35:11.565Z,86.25
2019-01-02T18:37:40.340Z,85.76
2019-01-02T18:40:09.451Z,85.59
2019-01-02T18:42:38.134Z,85.15
2019-01-02T18:45:07.007Z,86.65
2019-01-02T18:47:35.785Z,86.65
2019-01-02T18:50:05.460Z,86.89
2019-01-02T18:52:34.722Z,86.67
2019-01-02T18:55:03.405Z,85.99
2019-01-02T18:57:32.134Z,86.80
2019-01-02T19:00:06.082Z,87.35
2019-01-02T19:02:31.253Z,86.27
2019-01-02T19:04:59.978Z,86.39
2019-01-02T19:07:28.705Z,86.26
2019-01-02T19:09:57.390Z,87.30
2019-01-02T19:12:26.078Z,87.74
2019-01-02T19:14:54.837Z,88.50
2019-01-02T19:17:23.573Z,88.13
2019-01-02T19:19:52.328Z,88.47
2019-01-02T19:22:21.309Z,88.34
2019-01-02T19:24:50.059Z,88.29
2019-01-02T19:27:18.743Z,88.28
2019-01-02T19:29:47.761Z,86.94
2019-01-02T19:32:16.564Z,88.16
2019-01-02T19:34:45.260Z,89.50
2019-01-02T19:37:14.252Z,89.00
2019-01-02T19:39:42.945Z,89.36
2019-01-02T19:42:12.009Z,89.76
2019-01-02T19:44:41.107Z,90.34
2019-01-02T19:47:09.886Z,91.44
2019-01-02T19:49:38.581Z,92.16
2019-01-02T19:52:07.259Z,91.49
2019-01-02T19:54:36.659Z,91.00
2019-01-02T19:57:04.895Z,92.40
2019-01-02T19:59:33.931Z,92.25
2019-01-02T20:02:02.695Z,92.80
2019-01-02T20:04:31.382Z,91.31
2019-01-02T20:07:00.461Z,90.86
2019-01-02T20:09:29.141Z,90.74
2019-01-02T20:11:57.914Z,91.49
2019-01-02T20:14:26.623Z,91.49
2019-01-02T20:16:55.308Z,91.24
2019-01-02T20:19:24.332Z,91.04
2019-01-02T20:21:53.039Z,90.75
2019-01-02T20:24:21.742Z,91.16
2019-01-02T20:26:55.397Z,90.65
2019-01-02T20:29:20.940Z,91.84
2019-01-02T20:31:50.699Z,92.64
2019-01-02T20:34:19.395Z,92.06
2019-01-02T20:36:48.416Z,91.46
2019-01-02T20:39:17.226Z,91.20
2019-01-02T20:41:45.869Z,90.00
2019-01-02T20:44:14.716Z,90.00
2019-01-02T20:46:43.473Z,91.72
2019-01-02T20:49:12.172Z,93.13
2019-01-02T20:51:40.852Z,93.97
2019-01-02T20:54:09.549Z,93.97
2019-01-02T20:56:38.865Z,94.02
2019-01-02T20:59:07.566Z,93.85
2019-01-02T21:01:36.336Z,92.71
2019-01-02T21:04:05.029Z,92.71
2019-01-02T21:06:33.806Z,92.85
2019-01-02T21:09:03.579Z,92.78
2019-01-02T21:11:32.269Z,92.78
2019-01-02T21:14:00.960Z,93.46
2019-01-02T21:16:29.706Z,92.22
2019-01-02T21:18:58.740Z,92.22
2019-01-02T21:21:28.046Z,92.56
2019-01-02T21:23:56.728Z,92.32
2019-01-02T21:26:25.421Z,93.53
2019-01-02T21:28:54.140Z,94.35
2019-01-02T21:31:22.938Z,94.01
2019-01-02T21:33:51.600Z,93.16
2019-01-02T21:36:20.624Z,93.85
2019-01-02T21:38:49.384Z,94.32
2019-01-02T21:41:18.444Z,94.65
2019-01-02T21:43:47.489Z,94.80
2019-01-02T21:46:16.259Z,94.47
2019-01-02T21:48:45.016Z,94.75
2019-01-02T21:51:13.712Z,94.98
2019-01-02T21:53:42.483Z,94.73
2019-01-02T21:56:11.556Z,94.98
2019-01-02T21:58:40.272Z,94.00
2019-01-02T22:01:09.113Z,94.30
2019-01-02T22:03:37.845Z,94.92
2019-01-02T22:06:06.615Z,95.07
2019-01-02T22:08:35.324Z,94.54
2019-01-02T22:11:04.486Z,94.16
2019-01-02T22:13:33.183Z,93.96
2019-01-02T22:16:01.881Z,93.85
2019-01-02T22:18:30.970Z,93.12
2019-01-02T22:20:59.753Z,92.75
2019-01-02T22:23:28.450Z,92.81
2019-01-02T22:25:57.537Z,93.34
2019-01-02T22:28:26.300Z,94.84
2019-01-02T22:30:55.103Z,94.87
2019-01-02T22:33:23.884Z,94.73
2019-01-02T22:35:52.579Z,94.98
2019-01-02T22:38:21.279Z,94.97
2019-01-02T22:40:50.068Z,95.17
2019-01-02T22:43:18.778Z,95.65
2019-01-02T22:45:47.470Z,94.60
2019-01-02T22:48:16.290Z,93.90
2019-01-02T22:50:45.095Z,93.04
2019-01-02T22:53:14.184Z,92.51
2019-01-02T22:55:42.887Z,92.64
2019-01-02T22:58:11.673Z,92.09
2019-01-02T23:01:15.183Z,92.00
2019-01-02T23:04:06.142Z,92.79
2019-01-02T23:07:06.499Z,93.00
2019-01-02T23:10:06.790Z,92.91
2019-01-02T23:12:55.134Z,93.31
2019-01-02T23:15:45.861Z,92.49
2019-01-02T23:18:32.551Z,93.22
2019-01-02T23:21:24.503Z,93.61
2019-01-02T23:24:11.213Z,93.99
2019-01-02T23:27:13.144Z,94.46
2019-01-02T23:30:01.780Z,94.81
2019-01-02T23:32:49.438Z,95.41
2019-01-02T23:35:37.256Z,95.19
2019-01-02T23:38:23.998Z,95.33
2019-01-02T23:41:18.121Z,95.52
2019-01-02T23:44:09.222Z,95.99
2019-01-02T23:46:56.472Z,95.51
2019-01-02T23:49:57.313Z,95.08
2019-01-02T23:52:43.986Z,95.43
2019-01-02T23:55:28.878Z,95.74
2019-01-02T23:58:16.914Z,95.64
